ADDS METAR Data INFO
IDs: Format: Raw Decoded Include TAF

Data at: 0521 UTC 19 Jan 2018

METAR for:KHLX (Hillsville/Twin Cnty, VA, US)
Text:KHLX 190515Z AUTO 30010G16KT 10SM CLR M03/M17 A3016 RMK AO2 T10341169
Temperature: -3.4°C ( 26°F)
Dewpoint:-16.9°C ( 2°F) [RH = 34%]
Pressure (altimeter):30.16 inches Hg (1021.4 mb)
Winds:from the WNW (300 degrees) at 12 MPH (10 knots; 5.1 m/s) gusting to 18 MPH (16 knots; 8.2 m/s)
Visibility:10 or more sm (16+ km)
Ceiling:at least 12,000 feet AGL
Clouds:sky clear below 12,000 feet AGL
QC Flag:automated observation with no human augmentation